Aviation Digital Data Service (ADDS)

Output produced by METARs form (2220 UTC 01 September 2015)
found at http://aviationweather.gov/adds/metars/
 
KMFD 011727Z 0118/0218 26007KT P6SM BKN045 
     FM020000 21003KT P6SM SKC 
     TEMPO 0210/0213 4SM BR SKC 
     FM021400 26007KT P6SM SCT045